createdAt,value
2023-05-10T00:01:08.266Z,35.27
2023-05-10T00:03:35.454Z,35.26
2023-05-10T00:06:02.712Z,35.32
2023-05-10T00:08:29.848Z,35.41
2023-05-10T00:10:56.827Z,35.17
2023-05-10T00:13:23.959Z,35.46
2023-05-10T00:15:51.136Z,35.46
2023-05-10T00:18:18.771Z,35.61
2023-05-10T00:20:49.200Z,35.53
2023-05-10T00:23:19.573Z,35.55
2023-05-10T00:25:47.117Z,35.47
2023-05-10T00:28:14.130Z,35.43
2023-05-10T00:30:42.366Z,35.65
2023-05-10T00:33:09.384Z,35.67
2023-05-10T00:35:36.588Z,35.71
2023-05-10T00:38:03.555Z,35.61
2023-05-10T00:40:31.693Z,35.67
2023-05-10T00:43:03.514Z,35.63
2023-05-10T00:45:31.892Z,35.58
2023-05-10T00:48:00.447Z,35.60
2023-05-10T00:50:27.519Z,35.64
2023-05-10T00:52:54.811Z,35.89
2023-05-10T00:55:22.117Z,35.68
2023-05-10T00:57:49.017Z,35.50
2023-05-10T01:00:18.776Z,35.69
2023-05-10T01:02:47.454Z,35.71
2023-05-10T01:05:15.153Z,35.69
2023-05-10T01:07:42.392Z,35.63
2023-05-10T01:10:11.055Z,35.62
2023-05-10T01:12:39.506Z,35.71
2023-05-10T01:15:08.433Z,35.76
2023-05-10T01:17:38.479Z,35.91
2023-05-10T01:20:11.204Z,35.91
2023-05-10T01:23:20.095Z,35.66
2023-05-10T01:26:35.134Z,35.98
2023-05-10T01:29:17.410Z,35.80
2023-05-10T01:31:53.286Z,35.74
2023-05-10T01:34:25.485Z,35.73
2023-05-10T01:36:57.188Z,35.73
2023-05-10T01:39:42.149Z,35.63
2023-05-10T01:42:11.685Z,35.80
2023-05-10T01:45:12.014Z,35.65
2023-05-10T01:48:11.043Z,35.75
2023-05-10T01:50:43.683Z,35.86
2023-05-10T01:53:12.215Z,35.92
2023-05-10T01:55:46.103Z,35.68
2023-05-10T01:58:21.226Z,35.69
2023-05-10T02:00:48.491Z,35.92
2023-05-10T02:03:17.104Z,35.87
2023-05-10T02:05:45.551Z,35.76
2023-05-10T02:08:13.147Z,35.68
2023-05-10T02:10:40.242Z,35.90
2023-05-10T02:13:09.984Z,35.87
2023-05-10T02:15:37.640Z,35.98
2023-05-10T02:18:09.126Z,35.80
2023-05-10T02:20:37.495Z,35.88
2023-05-10T02:23:04.682Z,35.89
2023-05-10T02:25:33.961Z,35.88
2023-05-10T02:28:02.267Z,36.05
2023-05-10T02:30:30.980Z,36.04
2023-05-10T02:33:00.389Z,35.98
2023-05-10T02:35:27.558Z,35.94
2023-05-10T02:37:54.546Z,36.01
2023-05-10T02:40:21.965Z,36.02
2023-05-10T02:42:49.523Z,36.12
2023-05-10T02:45:20.191Z,36.02
2023-05-10T02:47:48.219Z,36.03
2023-05-10T02:50:15.504Z,36.02
2023-05-10T02:52:53.013Z,36.22
2023-05-10T02:55:27.462Z,36.15
2023-05-10T02:58:00.054Z,36.08
2023-05-10T03:15:00.047Z,35.89
2023-05-10T03:17:47.912Z,35.82
2023-05-10T03:20:31.119Z,35.69
2023-05-10T03:23:23.829Z,35.65
2023-05-10T03:25:51.367Z,35.85
2023-05-10T03:28:19.401Z,35.78
2023-05-10T03:30:46.749Z,35.69
2023-05-10T03:33:14.372Z,35.66
2023-05-10T03:35:46.256Z,35.77
2023-05-10T03:38:13.689Z,35.84
2023-05-10T03:40:40.865Z,35.91
2023-05-10T03:43:09.814Z,35.71
2023-05-10T03:45:36.966Z,35.72
2023-05-10T03:48:06.264Z,35.70
2023-05-10T03:50:33.480Z,35.70
2023-05-10T03:53:02.762Z,35.55
2023-05-10T03:55:30.341Z,35.60
2023-05-10T03:57:57.386Z,35.56
2023-05-10T04:00:25.860Z,35.44
2023-05-10T04:02:54.905Z,35.23
2023-05-10T04:05:21.907Z,35.12
2023-05-10T04:07:50.401Z,35.04
2023-05-10T04:10:18.234Z,34.95
2023-05-10T04:12:47.385Z,34.78
2023-05-10T04:15:14.918Z,34.59
2023-05-10T04:17:44.886Z,34.59
2023-05-10T04:20:12.534Z,34.50
2023-05-10T04:22:40.253Z,34.32
2023-05-10T04:25:08.039Z,34.37
2023-05-10T04:27:35.790Z,34.14
2023-05-10T04:30:03.879Z,33.99
2023-05-10T04:32:33.797Z,33.78
2023-05-10T04:35:04.097Z,33.72
2023-05-10T04:37:32.887Z,33.46
2023-05-10T04:40:00.534Z,33.12
2023-05-10T04:42:28.172Z,33.22
2023-05-10T04:44:55.982Z,33.10
2023-05-10T04:47:24.448Z,32.86
2023-05-10T04:49:51.496Z,32.83
2023-05-10T04:52:18.549Z,32.63
2023-05-10T04:54:46.825Z,32.62
2023-05-10T04:57:16.012Z,32.42
2023-05-10T04:59:43.334Z,32.60
2023-05-10T05:02:10.917Z,32.86
2023-05-10T05:04:37.986Z,33.07
2023-05-10T05:07:05.412Z,33.26
2023-05-10T05:09:39.108Z,33.15
2023-05-10T05:12:07.144Z,32.90
2023-05-10T05:14:34.444Z,32.95
2023-05-10T05:17:03.549Z,32.96
2023-05-10T05:19:35.015Z,32.80
2023-05-10T05:22:06.897Z,32.92
2023-05-10T05:24:39.508Z,32.79
2023-05-10T05:27:07.490Z,32.75
2023-05-10T05:29:34.591Z,32.44
2023-05-10T05:32:03.978Z,32.38
2023-05-10T05:34:31.145Z,32.10
2023-05-10T05:37:01.057Z,31.37
2023-05-10T05:39:28.486Z,31.17
2023-05-10T05:41:56.342Z,30.88
2023-05-10T05:44:23.592Z,30.79
2023-05-10T05:46:50.778Z,30.67
2023-05-10T05:49:24.972Z,30.37
2023-05-10T05:51:54.416Z,30.02
2023-05-10T05:54:22.029Z,29.61
2023-05-10T05:56:50.283Z,29.26
2023-05-10T05:59:18.792Z,29.55
2023-05-10T06:01:45.979Z,29.88
2023-05-10T06:04:17.659Z,29.86
2023-05-10T06:06:44.987Z,29.87
2023-05-10T06:09:12.383Z,29.98
2023-05-10T06:11:39.663Z,30.41
2023-05-10T06:14:08.233Z,30.75
2023-05-10T06:16:37.770Z,30.76
2023-05-10T06:19:06.929Z,30.61
2023-05-10T06:21:33.997Z,30.70
2023-05-10T06:24:01.773Z,30.67
2023-05-10T06:26:28.976Z,30.63
2023-05-10T06:28:57.320Z,30.66
2023-05-10T06:31:24.387Z,30.63
2023-05-10T06:33:51.680Z,30.72
2023-05-10T06:36:18.773Z,30.80
2023-05-10T06:38:47.943Z,31.00
2023-05-10T06:41:29.337Z,30.96
2023-05-10T06:43:57.397Z,30.52
2023-05-10T06:46:24.989Z,30.24
2023-05-10T06:48:55.082Z,29.99
2023-05-10T06:51:22.546Z,29.61
2023-05-10T06:53:50.464Z,29.04
2023-05-10T06:56:22.173Z,28.42
2023-05-10T06:58:57.454Z,27.92
2023-05-10T07:01:25.835Z,27.26
2023-05-10T07:03:54.428Z,26.82
2023-05-10T07:06:33.359Z,26.18
2023-05-10T07:09:01.555Z,25.67
2023-05-10T07:11:29.264Z,25.62
2023-05-10T07:13:57.877Z,25.36
2023-05-10T07:16:25.694Z,25.31
2023-05-10T07:18:54.142Z,25.17
2023-05-10T07:21:21.558Z,25.10
2023-05-10T07:23:50.033Z,24.81
2023-05-10T07:26:17.849Z,25.00
2023-05-10T07:28:46.614Z,24.84
2023-05-10T07:31:19.875Z,24.72
2023-05-10T07:33:50.529Z,24.78
2023-05-10T07:36:20.316Z,24.77
2023-05-10T07:38:48.094Z,24.46
2023-05-10T07:41:16.300Z,24.47
2023-05-10T07:43:47.974Z,24.34
2023-05-10T07:46:16.242Z,24.25
2023-05-10T07:48:44.732Z,24.29
2023-05-10T07:51:12.447Z,24.45
2023-05-10T07:53:39.536Z,24.60
2023-05-10T07:56:25.899Z,24.66
2023-05-10T07:58:54.948Z,24.72
2023-05-10T08:01:24.372Z,24.92
2023-05-10T08:03:52.290Z,24.84
2023-05-10T08:06:23.859Z,24.47
2023-05-10T08:08:58.110Z,23.96
2023-05-10T08:11:25.459Z,23.37
2023-05-10T08:13:53.558Z,23.10
2023-05-10T08:16:22.375Z,22.72
2023-05-10T08:18:51.199Z,22.19
2023-05-10T08:21:19.156Z,22.39
2023-05-10T08:23:46.156Z,22.34
2023-05-10T08:26:13.263Z,22.48
2023-05-10T08:28:43.964Z,21.84
2023-05-10T08:31:11.900Z,21.95
2023-05-10T08:33:39.652Z,21.90
2023-05-10T08:36:09.779Z,21.75
2023-05-10T08:38:39.737Z,21.87
2023-05-10T08:41:09.515Z,21.72
2023-05-10T08:43:37.273Z,21.29
2023-05-10T08:46:04.708Z,21.14
2023-05-10T08:48:32.317Z,21.26
2023-05-10T08:51:00.521Z,21.60
2023-05-10T08:53:27.879Z,22.02
2023-05-10T08:55:57.083Z,21.54
2023-05-10T08:58:25.928Z,20.99
2023-05-10T09:00:52.926Z,20.86
2023-05-10T09:03:21.394Z,20.39
2023-05-10T09:05:49.334Z,20.30
2023-05-10T09:08:21.452Z,20.11
2023-05-10T09:10:48.734Z,20.12
2023-05-10T09:13:16.765Z,20.22
2023-05-10T09:15:47.543Z,19.93
2023-05-10T09:18:15.853Z,20.03
2023-05-10T09:20:43.724Z,19.78
2023-05-10T09:23:11.758Z,19.77
2023-05-10T09:25:47.513Z,19.84
2023-05-10T09:28:17.540Z,19.87
2023-05-10T09:30:44.909Z,19.96
2023-05-10T09:33:12.152Z,19.91
2023-05-10T09:35:40.712Z,20.10
2023-05-10T09:38:09.144Z,20.33
2023-05-10T09:40:37.699Z,20.21
2023-05-10T09:43:07.850Z,20.40
2023-05-10T09:45:38.262Z,20.73
2023-05-10T09:48:06.477Z,21.20
2023-05-10T09:50:36.771Z,21.70
2023-05-10T09:53:04.218Z,21.67
2023-05-10T09:56:01.372Z,22.05
2023-05-10T09:58:28.633Z,22.25
2023-05-10T10:00:56.494Z,22.36
2023-05-10T10:03:24.828Z,22.54
2023-05-10T10:05:53.755Z,22.50
2023-05-10T10:08:23.147Z,22.63
2023-05-10T10:10:54.416Z,22.59
2023-05-10T10:13:23.681Z,22.61
2023-05-10T10:15:52.967Z,22.53
2023-05-10T10:18:24.220Z,22.50
2023-05-10T10:20:51.263Z,22.47
2023-05-10T10:23:19.866Z,22.32
2023-05-10T10:25:49.417Z,22.26
2023-05-10T10:28:23.173Z,22.46
2023-05-10T10:30:51.454Z,22.38
2023-05-10T10:33:41.731Z,22.09
2023-05-10T10:36:10.452Z,22.02
2023-05-10T10:38:39.511Z,21.78
2023-05-10T10:41:12.097Z,21.72
2023-05-10T10:43:39.195Z,21.89
2023-05-10T10:46:18.719Z,22.02
2023-05-10T10:49:08.986Z,21.80
2023-05-10T10:51:43.845Z,21.66
2023-05-10T10:54:12.258Z,21.68
2023-05-10T10:56:40.317Z,21.66
2023-05-10T10:59:31.980Z,21.72
2023-05-10T11:02:01.308Z,21.55
2023-05-10T11:04:29.516Z,21.53
2023-05-10T11:07:16.922Z,21.43
2023-05-10T11:09:44.348Z,21.40
2023-05-10T11:12:15.306Z,21.46
2023-05-10T11:14:45.465Z,21.48
2023-05-10T11:17:30.018Z,21.21
2023-05-10T11:20:10.606Z,21.11
2023-05-10T11:22:53.985Z,21.02
2023-05-10T11:25:27.147Z,20.96
2023-05-10T11:27:55.614Z,20.77
2023-05-10T11:30:24.254Z,20.60
2023-05-10T11:32:55.807Z,20.64
2023-05-10T11:35:24.297Z,21.14
2023-05-10T11:37:51.687Z,21.11
2023-05-10T11:40:19.476Z,21.33
2023-05-10T11:42:52.986Z,21.30
2023-05-10T11:45:22.307Z,21.36
2023-05-10T11:47:49.710Z,21.29
2023-05-10T11:50:18.566Z,21.57
2023-05-10T11:52:46.039Z,22.00
2023-05-10T11:55:13.381Z,22.24
2023-05-10T11:57:42.298Z,22.29
2023-05-10T12:00:10.460Z,22.27
2023-05-10T12:02:39.238Z,22.29
2023-05-10T12:05:13.617Z,22.37
2023-05-10T12:07:42.658Z,22.47
2023-05-10T12:10:21.952Z,22.47
2023-05-10T12:12:54.716Z,22.38
2023-05-10T12:15:23.706Z,22.44
2023-05-10T12:17:51.922Z,22.75
2023-05-10T12:20:25.556Z,22.70
2023-05-10T12:22:58.327Z,22.62
2023-05-10T12:25:34.600Z,22.73
2023-05-10T12:30:56.060Z,22.64
2023-05-10T12:33:24.007Z,22.52
2023-05-10T12:35:53.774Z,22.32
2023-05-10T12:38:32.646Z,22.30
2023-05-10T12:41:01.020Z,22.34
2023-05-10T12:43:29.706Z,22.37
2023-05-10T12:45:57.917Z,22.39
2023-05-10T12:48:25.117Z,22.34
2023-05-10T12:50:52.376Z,22.25
2023-05-10T12:53:19.834Z,22.22
2023-05-10T12:55:47.632Z,22.11
2023-05-10T12:58:31.555Z,22.07
2023-05-10T13:01:02.165Z,22.15
2023-05-10T13:03:30.974Z,22.11
2023-05-10T13:05:57.984Z,22.07
2023-05-10T13:08:26.416Z,22.06
2023-05-10T13:10:54.115Z,22.23
2023-05-10T13:13:21.856Z,22.39
2023-05-10T13:15:50.240Z,22.44
2023-05-10T13:18:18.190Z,22.56
2023-05-10T13:20:47.220Z,22.36
2023-05-10T13:23:14.411Z,22.31
2023-05-10T13:25:41.657Z,22.61
2023-05-10T13:28:09.998Z,22.62
2023-05-10T13:30:37.294Z,22.59
2023-05-10T13:33:05.817Z,22.51
2023-05-10T13:35:33.798Z,22.44
2023-05-10T13:38:02.805Z,22.50
2023-05-10T13:40:32.963Z,22.52
2023-05-10T13:43:00.640Z,22.64
2023-05-10T13:45:27.751Z,22.59
2023-05-10T13:48:24.618Z,22.54
2023-05-10T13:50:53.260Z,22.46
2023-05-10T13:53:22.969Z,22.61
2023-05-10T13:55:51.914Z,22.64
2023-05-10T13:58:20.680Z,22.57
2023-05-10T14:00:50.062Z,22.60
2023-05-10T14:03:18.073Z,22.63
2023-05-10T14:05:46.903Z,22.69
2023-05-10T14:08:15.483Z,22.74
2023-05-10T14:10:42.654Z,22.84
2023-05-10T14:13:15.156Z,22.57
2023-05-10T14:15:42.651Z,22.46
2023-05-10T14:18:09.803Z,22.52
2023-05-10T14:20:37.270Z,22.47
2023-05-10T14:23:09.765Z,22.52
2023-05-10T14:25:41.759Z,22.68
2023-05-10T14:28:09.444Z,22.49
2023-05-10T14:30:37.316Z,22.60
2023-05-10T14:33:04.426Z,22.72
2023-05-10T14:35:31.762Z,22.88
2023-05-10T14:37:59.202Z,22.67
2023-05-10T14:40:26.558Z,22.84
2023-05-10T14:42:54.113Z,23.00
2023-05-10T14:45:21.517Z,23.03
2023-05-10T14:47:49.368Z,23.20
2023-05-10T14:50:35.884Z,23.39
2023-05-10T14:53:06.013Z,23.56
2023-05-10T14:55:36.009Z,23.62
2023-05-10T14:58:06.017Z,23.52
2023-05-10T15:00:36.172Z,23.34
2023-05-10T15:03:04.073Z,23.28
2023-05-10T15:05:31.654Z,23.37
2023-05-10T15:08:01.512Z,23.58
2023-05-10T15:10:33.796Z,23.72
2023-05-10T15:13:03.848Z,23.61
2023-05-10T15:15:31.934Z,23.68
2023-05-10T15:18:00.349Z,23.70
2023-05-10T15:20:27.302Z,23.64
2023-05-10T15:22:54.964Z,23.70
2023-05-10T15:25:24.753Z,23.91
2023-05-10T15:27:52.969Z,23.87
2023-05-10T15:30:22.657Z,23.78
2023-05-10T15:32:51.318Z,23.90
2023-05-10T15:35:20.670Z,24.00
2023-05-10T15:37:48.390Z,23.95
2023-05-10T15:40:19.948Z,24.01
2023-05-10T15:42:47.835Z,23.98
2023-05-10T15:45:17.005Z,24.05
2023-05-10T15:47:45.358Z,23.97
2023-05-10T15:50:12.593Z,24.13
2023-05-10T15:52:41.940Z,24.14
2023-05-10T15:55:12.386Z,24.16
2023-05-10T15:57:41.224Z,24.17
2023-05-10T16:00:12.317Z,24.24
2023-05-10T16:02:41.740Z,24.17
2023-05-10T16:05:13.635Z,24.07
2023-05-10T16:07:41.484Z,24.21
2023-05-10T16:10:10.651Z,24.34
2023-05-10T16:12:41.065Z,24.39
2023-05-10T16:15:10.903Z,24.51
2023-05-10T16:17:42.200Z,24.57
2023-05-10T16:20:09.703Z,24.72
2023-05-10T16:22:38.236Z,24.93
2023-05-10T16:25:06.712Z,25.04
2023-05-10T16:27:36.901Z,25.01
2023-05-10T16:30:10.574Z,25.08
2023-05-10T16:32:39.061Z,25.15
2023-05-10T16:35:08.672Z,25.18
2023-05-10T16:37:38.579Z,25.10
2023-05-10T16:40:09.540Z,25.15
2023-05-10T16:42:37.187Z,25.12
2023-05-10T16:45:08.926Z,25.18
2023-05-10T16:47:39.544Z,25.24
2023-05-10T16:50:09.644Z,25.35
2023-05-10T16:52:42.618Z,25.37
2023-05-10T16:55:11.130Z,25.45
2023-05-10T16:57:38.759Z,25.51
2023-05-10T17:00:07.090Z,25.57
2023-05-10T17:02:43.798Z,25.63
2023-05-10T17:05:11.219Z,25.60
2023-05-10T17:07:41.714Z,25.65
2023-05-10T17:10:09.680Z,25.72
2023-05-10T17:12:37.986Z,25.73
2023-05-10T17:15:09.298Z,25.79
2023-05-10T17:17:38.823Z,25.96
2023-05-10T17:20:07.522Z,25.84
2023-05-10T17:22:34.812Z,25.99
2023-05-10T17:25:05.371Z,26.14
2023-05-10T17:27:36.168Z,26.42
2023-05-10T17:30:06.283Z,26.40
2023-05-10T17:32:35.933Z,26.44
2023-05-10T17:35:05.892Z,26.54
2023-05-10T17:37:35.619Z,26.55
2023-05-10T17:40:05.811Z,26.58
2023-05-10T17:42:36.566Z,26.69
2023-05-10T17:45:06.813Z,26.71
2023-05-10T17:47:36.425Z,26.85
2023-05-10T17:50:05.982Z,26.98
2023-05-10T17:52:37.130Z,27.15
2023-05-10T17:55:04.748Z,27.02
2023-05-10T17:57:32.517Z,27.16
2023-05-10T18:00:01.972Z,27.33
2023-05-10T18:02:33.671Z,27.33
2023-05-10T18:05:04.778Z,27.30
2023-05-10T18:07:32.536Z,27.43
2023-05-10T18:10:00.862Z,27.48
2023-05-10T18:12:28.516Z,27.47
2023-05-10T18:14:56.379Z,27.55
2023-05-10T18:17:23.843Z,27.63
2023-05-10T18:19:53.801Z,27.65
2023-05-10T18:22:22.069Z,27.76
2023-05-10T18:24:56.945Z,27.78
2023-05-10T18:27:29.408Z,27.88
2023-05-10T18:30:13.102Z,28.05
2023-05-10T18:32:47.045Z,28.06
2023-05-10T18:35:14.533Z,28.07
2023-05-10T18:37:44.150Z,28.06
2023-05-10T18:40:14.376Z,28.05
2023-05-10T18:42:42.123Z,28.13
2023-05-10T18:45:14.110Z,28.08
2023-05-10T18:47:42.930Z,28.21
2023-05-10T18:50:11.962Z,28.40
2023-05-10T18:52:39.759Z,28.31
2023-05-10T18:55:08.096Z,28.48
2023-05-10T18:57:40.856Z,28.49
2023-05-10T19:00:13.223Z,28.50
2023-05-10T19:02:42.142Z,28.42
2023-05-10T19:05:09.980Z,28.49
2023-05-10T19:07:38.273Z,28.42
2023-05-10T19:10:06.254Z,28.29
2023-05-10T19:12:37.836Z,28.33
2023-05-10T19:15:06.513Z,28.40
2023-05-10T19:17:36.076Z,28.38
2023-05-10T19:20:07.666Z,28.35
2023-05-10T19:22:47.025Z,28.40
2023-05-10T19:25:28.740Z,28.44
2023-05-10T19:27:59.101Z,28.23
2023-05-10T19:30:26.701Z,28.32
2023-05-10T19:32:57.914Z,28.34
2023-05-10T19:35:26.091Z,28.37
2023-05-10T19:37:54.159Z,28.44
2023-05-10T19:40:24.804Z,28.53
2023-05-10T19:42:51.843Z,28.56
2023-05-10T19:45:20.640Z,28.65
2023-05-10T19:47:47.914Z,28.60
2023-05-10T19:50:17.593Z,28.69
2023-05-10T19:52:49.965Z,28.85
2023-05-10T19:55:26.308Z,28.82
2023-05-10T19:57:53.350Z,28.86
2023-05-10T20:00:20.551Z,28.91
2023-05-10T20:02:49.615Z,28.85
2023-05-10T20:05:18.080Z,28.99
2023-05-10T20:07:46.747Z,28.93
2023-05-10T20:10:26.875Z,28.97
2023-05-10T20:13:04.076Z,29.10
2023-05-10T20:15:31.601Z,29.27
2023-05-10T20:18:03.143Z,29.09
2023-05-10T20:20:33.049Z,29.16
2023-05-10T20:23:00.056Z,29.20
2023-05-10T20:25:28.657Z,29.20
2023-05-10T20:27:56.260Z,29.40
2023-05-10T20:30:32.950Z,29.31
2023-05-10T20:33:03.663Z,29.43
2023-05-10T20:35:33.721Z,29.44
2023-05-10T20:38:01.959Z,29.40
2023-05-10T20:40:29.229Z,29.44
2023-05-10T20:42:56.564Z,29.54
2023-05-10T20:45:23.931Z,29.55
2023-05-10T20:47:51.522Z,29.57
2023-05-10T20:50:19.149Z,29.52
2023-05-10T20:52:47.123Z,29.52
2023-05-10T20:55:14.989Z,29.55
2023-05-10T20:57:42.719Z,29.57
2023-05-10T21:00:10.520Z,29.80
2023-05-10T21:02:42.869Z,29.70
2023-05-10T21:05:12.803Z,29.71
2023-05-10T21:07:40.617Z,29.71
2023-05-10T21:10:10.062Z,29.82
2023-05-10T21:12:39.655Z,30.05
2023-05-10T21:15:08.205Z,30.00
2023-05-10T21:17:37.926Z,29.91
2023-05-10T21:20:06.039Z,29.90
2023-05-10T21:22:33.644Z,29.97
2023-05-10T21:25:01.687Z,29.82
2023-05-10T21:27:30.376Z,29.86
2023-05-10T21:29:57.889Z,29.89
2023-05-10T21:32:24.812Z,30.05
2023-05-10T21:34:53.260Z,30.16
2023-05-10T21:37:20.234Z,30.08
2023-05-10T21:39:47.803Z,30.07
2023-05-10T21:42:16.195Z,30.10
2023-05-10T21:44:43.240Z,30.09
2023-05-10T21:47:10.185Z,30.14
2023-05-10T21:49:38.306Z,30.22
2023-05-10T21:52:05.611Z,30.23
2023-05-10T21:54:32.905Z,30.35
2023-05-10T21:57:01.284Z,30.52
2023-05-10T21:59:28.294Z,30.59
2023-05-10T22:01:59.273Z,30.59
2023-05-10T22:04:26.364Z,30.79
2023-05-10T22:06:53.824Z,30.92
2023-05-10T22:09:21.191Z,30.81
2023-05-10T22:11:48.268Z,31.06
2023-05-10T22:14:15.477Z,31.08
2023-05-10T22:16:43.237Z,31.19
2023-05-10T22:19:10.718Z,31.17
2023-05-10T22:21:37.610Z,31.46
2023-05-10T22:24:04.838Z,31.39
2023-05-10T22:26:32.883Z,31.58
2023-05-10T22:28:59.939Z,31.70
2023-05-10T22:31:28.188Z,31.81
2023-05-10T22:33:58.266Z,31.73
2023-05-10T22:36:25.286Z,31.92
2023-05-10T22:38:52.274Z,32.04
2023-05-10T22:41:19.414Z,32.19
2023-05-10T22:43:46.366Z,32.23
2023-05-10T22:46:13.872Z,32.25
2023-05-10T22:48:42.004Z,32.53
2023-05-10T22:51:10.242Z,32.36
2023-05-10T22:53:37.325Z,32.53
2023-05-10T22:56:05.571Z,32.32
2023-05-10T22:58:32.877Z,32.66
2023-05-10T23:00:59.966Z,32.62
2023-05-10T23:03:27.033Z,32.76
2023-05-10T23:05:54.123Z,32.89
2023-05-10T23:08:22.264Z,32.70
2023-05-10T23:10:50.607Z,32.80
2023-05-10T23:13:20.388Z,32.87
2023-05-10T23:15:47.793Z,32.83
2023-05-10T23:18:15.419Z,32.80
2023-05-10T23:20:42.623Z,32.88
2023-05-10T23:23:10.685Z,32.85
2023-05-10T23:25:39.279Z,33.11
2023-05-10T23:28:06.481Z,32.93
2023-05-10T23:30:33.469Z,32.87
2023-05-10T23:33:00.800Z,32.90
2023-05-10T23:35:27.832Z,32.88
2023-05-10T23:37:55.082Z,32.91
2023-05-10T23:40:22.097Z,33.10
2023-05-10T23:42:49.101Z,33.10
2023-05-10T23:45:16.172Z,33.07
2023-05-10T23:47:43.532Z,33.07
2023-05-10T23:50:12.264Z,33.29
2023-05-10T23:52:40.256Z,33.11
2023-05-10T23:55:08.236Z,33.25
2023-05-10T23:57:36.576Z,33.28
